createdAt,value
2022-09-04T00:02:38.271Z,19.70
2022-09-04T00:05:40.990Z,19.60
2022-09-04T00:08:35.828Z,19.60
2022-09-04T00:11:13.001Z,19.60
2022-09-04T00:13:55.196Z,19.60
2022-09-04T00:16:46.879Z,19.60
2022-09-04T00:19:29.560Z,19.60
2022-09-04T00:22:00.352Z,19.60
2022-09-04T00:24:46.182Z,19.60
2022-09-04T00:27:23.635Z,19.50
2022-09-04T00:30:01.814Z,19.50
2022-09-04T00:32:41.500Z,19.40
2022-09-04T00:35:16.066Z,19.40
2022-09-04T00:37:59.025Z,19.40
2022-09-04T00:40:47.798Z,19.40
2022-09-04T00:43:32.882Z,19.40
2022-09-04T00:46:49.025Z,19.40
2022-09-04T00:49:36.529Z,19.40
2022-09-04T00:52:57.454Z,19.40
2022-09-04T00:55:28.387Z,19.40
2022-09-04T00:58:29.644Z,19.40
2022-09-04T01:00:59.596Z,19.30
2022-09-04T01:04:17.815Z,19.30
2022-09-04T01:07:15.257Z,19.30
2022-09-04T01:10:06.438Z,19.30
2022-09-04T01:12:36.472Z,19.30
2022-09-04T01:15:21.052Z,19.30
2022-09-04T01:18:11.597Z,19.30
2022-09-04T01:21:19.189Z,19.20
2022-09-04T01:24:18.057Z,19.20
2022-09-04T01:27:17.095Z,19.30
2022-09-04T01:30:15.397Z,19.20
2022-09-04T01:33:07.163Z,19.20
2022-09-04T01:36:03.604Z,19.20
2022-09-04T01:39:01.773Z,19.20
2022-09-04T01:41:50.264Z,19.20
2022-09-04T01:44:17.765Z,19.20
2022-09-04T01:47:06.247Z,19.20
2022-09-04T01:50:01.834Z,19.20
2022-09-04T01:53:24.154Z,19.10
2022-09-04T01:56:14.934Z,19.10
2022-09-04T01:59:03.951Z,19.10
2022-09-04T02:01:47.499Z,19.10
2022-09-04T02:04:21.725Z,19.10
2022-09-04T02:07:19.403Z,19.10
2022-09-04T02:10:28.197Z,19.10
2022-09-04T02:13:16.295Z,19.10
2022-09-04T02:16:20.804Z,19.10
2022-09-04T02:19:12.267Z,19.10
2022-09-04T02:22:01.096Z,19.10
2022-09-04T02:24:38.671Z,19.00
2022-09-04T02:27:46.624Z,19.00
2022-09-04T02:30:19.719Z,19.00
2022-09-04T02:33:18.439Z,19.00
2022-09-04T02:35:59.068Z,18.90
2022-09-04T02:39:08.524Z,19.00
2022-09-04T02:42:10.864Z,19.00
2022-09-04T02:45:38.630Z,18.90
2022-09-04T02:49:02.319Z,18.90
2022-09-04T02:52:09.343Z,18.90
2022-09-04T02:55:10.719Z,18.90
2022-09-04T02:58:03.335Z,18.90
2022-09-04T03:01:11.857Z,18.90
2022-09-04T03:04:04.702Z,18.90
2022-09-04T03:07:12.485Z,18.90
2022-09-04T03:10:15.653Z,18.90
2022-09-04T03:12:55.496Z,18.90
2022-09-04T03:15:54.642Z,18.90
2022-09-04T03:18:49.658Z,18.80
2022-09-04T03:21:27.445Z,18.90
2022-09-04T03:24:13.737Z,18.80
2022-09-04T03:26:47.077Z,18.80
2022-09-04T03:29:39.514Z,18.80
2022-09-04T03:32:16.439Z,18.80
2022-09-04T03:35:22.142Z,18.80
2022-09-04T03:38:13.868Z,18.80
2022-09-04T03:41:04.413Z,18.70
2022-09-04T03:44:37.866Z,18.70
2022-09-04T03:48:02.120Z,18.70
2022-09-04T03:50:50.739Z,18.70
2022-09-04T03:53:56.347Z,18.70
2022-09-04T03:56:44.590Z,18.70
2022-09-04T03:59:33.718Z,18.70
2022-09-04T04:02:33.009Z,18.70
2022-09-04T04:05:36.928Z,18.70
2022-09-04T04:08:35.597Z,18.60
2022-09-04T04:11:28.163Z,18.70
2022-09-04T04:14:35.476Z,18.70
2022-09-04T04:17:20.733Z,18.70
2022-09-04T04:20:25.432Z,18.70
2022-09-04T04:23:23.330Z,18.70
2022-09-04T04:26:40.732Z,18.70
2022-09-04T04:29:26.941Z,18.60
2022-09-04T04:32:13.641Z,18.60
2022-09-04T04:35:08.636Z,18.60
2022-09-04T04:38:21.946Z,18.60
2022-09-04T04:41:17.664Z,18.60
2022-09-04T04:44:11.624Z,18.60
2022-09-04T04:47:22.318Z,18.60
2022-09-04T04:50:36.196Z,18.60
2022-09-04T04:53:16.901Z,18.60
2022-09-04T04:56:15.302Z,18.60
2022-09-04T04:59:20.686Z,18.60
2022-09-04T05:02:09.438Z,18.60
2022-09-04T05:04:42.218Z,18.60
2022-09-04T05:07:47.122Z,18.60
2022-09-04T05:10:42.887Z,18.60
2022-09-04T05:13:34.759Z,18.60
2022-09-04T05:16:43.069Z,18.60
2022-09-04T05:19:43.726Z,18.50
2022-09-04T05:22:39.703Z,18.60
2022-09-04T05:25:54.369Z,18.60
2022-09-04T05:28:59.619Z,18.60
2022-09-04T05:31:54.770Z,18.60
2022-09-04T05:34:53.032Z,18.60
2022-09-04T05:37:46.336Z,18.60
2022-09-04T05:41:00.282Z,18.60
2022-09-04T05:44:03.564Z,18.50
2022-09-04T05:47:00.542Z,18.50
2022-09-04T05:49:52.149Z,18.40
2022-09-04T05:52:25.070Z,18.40
2022-09-04T05:55:10.223Z,18.50
2022-09-04T05:58:00.911Z,18.40
2022-09-04T06:01:15.755Z,18.40
2022-09-04T06:04:21.936Z,18.40
2022-09-04T06:07:13.964Z,18.40
2022-09-04T06:10:00.352Z,18.40
2022-09-04T06:12:32.896Z,18.40
2022-09-04T06:15:28.186Z,18.40
2022-09-04T06:18:10.735Z,18.50
2022-09-04T06:21:25.729Z,18.40
2022-09-04T06:24:04.287Z,18.40
2022-09-04T06:27:09.633Z,18.50
2022-09-04T06:30:14.550Z,18.50
2022-09-04T06:33:06.385Z,18.40
2022-09-04T06:36:13.236Z,18.50
2022-09-04T06:39:08.639Z,18.50
2022-09-04T06:42:01.738Z,18.50
2022-09-04T06:45:03.329Z,18.60
2022-09-04T06:48:14.376Z,18.60
2022-09-04T06:51:39.093Z,18.60
2022-09-04T06:54:41.766Z,18.60
2022-09-04T06:57:58.651Z,18.60
2022-09-04T07:00:30.598Z,18.60
2022-09-04T07:03:19.359Z,18.60
2022-09-04T07:06:30.097Z,18.60
2022-09-04T07:09:19.585Z,18.60
2022-09-04T07:12:17.795Z,18.60
2022-09-04T07:15:39.025Z,18.60
2022-09-04T07:18:43.511Z,18.70
2022-09-04T07:21:32.395Z,18.70
2022-09-04T07:24:36.105Z,18.60
2022-09-04T07:27:15.972Z,18.60
2022-09-04T07:29:52.881Z,18.70
2022-09-04T07:32:34.358Z,18.70
2022-09-04T07:35:25.490Z,18.70
2022-09-04T07:38:37.830Z,18.70
2022-09-04T07:41:28.428Z,18.70
2022-09-04T07:44:29.618Z,18.80
2022-09-04T07:47:14.237Z,18.70
2022-09-04T07:50:35.564Z,18.80
2022-09-04T07:53:28.885Z,18.80
2022-09-04T07:56:08.889Z,18.80
2022-09-04T07:59:00.424Z,18.90
2022-09-04T08:02:04.270Z,19.00
2022-09-04T08:05:11.758Z,19.00
2022-09-04T08:07:38.888Z,19.10
2022-09-04T08:10:31.545Z,19.10
2022-09-04T08:13:26.894Z,19.10
2022-09-04T08:16:22.126Z,19.20
2022-09-04T08:19:23.988Z,19.30
2022-09-04T08:21:55.739Z,19.30
2022-09-04T08:24:50.269Z,19.40
2022-09-04T08:27:44.543Z,19.40
2022-09-04T08:30:15.088Z,19.40
2022-09-04T08:33:15.995Z,19.50
2022-09-04T08:36:03.249Z,19.50
2022-09-04T08:39:07.678Z,19.50
2022-09-04T08:42:16.300Z,19.50
2022-09-04T08:45:15.393Z,19.50
2022-09-04T08:48:12.510Z,19.60
2022-09-04T08:51:16.584Z,19.70
2022-09-04T08:54:22.131Z,19.80
2022-09-04T08:57:12.034Z,20.00
2022-09-04T09:00:15.273Z,20.10
2022-09-04T09:03:39.403Z,20.10
2022-09-04T09:06:33.394Z,20.20
2022-09-04T09:09:50.867Z,20.30
2022-09-04T09:12:53.722Z,20.40
2022-09-04T09:15:42.585Z,20.60
2022-09-04T09:18:34.690Z,20.60
2022-09-04T09:21:18.944Z,20.60
2022-09-04T09:24:19.605Z,20.70
2022-09-04T09:27:28.345Z,20.70
2022-09-04T09:30:15.244Z,20.80
2022-09-04T09:33:31.475Z,20.90
2022-09-04T09:36:17.268Z,21.00
2022-09-04T09:39:09.772Z,21.10
2022-09-04T09:42:32.336Z,21.30
2022-09-04T09:45:35.830Z,21.30
2022-09-04T09:48:26.934Z,21.40
2022-09-04T09:51:36.969Z,21.50
2022-09-04T09:54:41.968Z,21.50
2022-09-04T09:57:39.100Z,21.50
2022-09-04T10:00:20.698Z,21.50
2022-09-04T10:03:25.744Z,21.50
2022-09-04T10:06:41.650Z,21.60
2022-09-04T10:09:37.725Z,21.60
2022-09-04T10:12:56.333Z,21.60
2022-09-04T10:15:46.543Z,21.60
2022-09-04T10:18:35.402Z,21.70
2022-09-04T10:21:48.762Z,21.70
2022-09-04T10:24:33.506Z,21.80
2022-09-04T10:27:26.317Z,21.90
2022-09-04T10:30:23.561Z,22.00
2022-09-04T10:33:26.455Z,22.10
2022-09-04T10:36:04.322Z,22.30
2022-09-04T10:39:41.506Z,22.40
2022-09-04T10:42:41.648Z,22.50
2022-09-04T10:45:41.414Z,22.60
2022-09-04T10:48:46.025Z,22.60
2022-09-04T10:51:59.829Z,22.60
2022-09-04T10:54:54.262Z,22.60
2022-09-04T10:57:42.631Z,22.60
2022-09-04T11:00:18.641Z,22.60
2022-09-04T11:03:03.447Z,22.60
2022-09-04T11:06:02.402Z,22.60
2022-09-04T11:09:14.549Z,22.60
2022-09-04T11:12:05.985Z,22.60
2022-09-04T11:14:57.436Z,22.60
2022-09-04T11:17:59.697Z,22.60
2022-09-04T11:20:55.154Z,22.60
2022-09-04T11:23:56.045Z,22.70
2022-09-04T11:26:54.916Z,22.70
2022-09-04T11:29:55.988Z,22.80
2022-09-04T11:33:10.176Z,22.80
2022-09-04T11:35:42.788Z,22.80
2022-09-04T11:38:43.942Z,22.80
2022-09-04T11:41:32.838Z,22.80
2022-09-04T11:44:40.825Z,22.90
2022-09-04T11:47:26.237Z,22.90
2022-09-04T11:50:30.065Z,22.90
2022-09-04T11:53:27.247Z,23.00
2022-09-04T11:56:03.392Z,22.90
2022-09-04T11:58:56.281Z,22.90
2022-09-04T12:02:02.577Z,22.90
2022-09-04T12:05:01.188Z,23.00
2022-09-04T12:08:04.049Z,23.00
2022-09-04T12:11:19.282Z,23.00
2022-09-04T12:14:23.889Z,23.00
2022-09-04T12:17:06.400Z,23.00
2022-09-04T12:20:08.033Z,23.00
2022-09-04T12:23:41.866Z,23.00
2022-09-04T12:26:31.301Z,23.00
2022-09-04T12:29:38.722Z,23.00
2022-09-04T12:32:31.474Z,23.10
2022-09-04T12:36:19.104Z,23.10
2022-09-04T12:39:35.275Z,23.10
2022-09-04T12:42:19.612Z,23.10
2022-09-04T12:45:26.270Z,23.10
2022-09-04T12:48:16.469Z,23.10
2022-09-04T12:51:05.455Z,23.10
2022-09-04T12:54:03.025Z,23.10
2022-09-04T12:56:49.115Z,23.10
2022-09-04T12:59:44.802Z,23.20
2022-09-04T13:02:40.732Z,23.30
2022-09-04T13:05:28.068Z,23.50
2022-09-04T13:08:28.397Z,23.70
2022-09-04T13:11:28.939Z,23.90
2022-09-04T13:14:34.498Z,24.20
2022-09-04T13:17:25.999Z,24.40
2022-09-04T13:20:12.490Z,24.50
2022-09-04T13:23:37.046Z,24.40
2022-09-04T13:26:32.415Z,24.40
2022-09-04T13:29:18.101Z,24.30
2022-09-04T13:32:17.883Z,24.20
2022-09-04T13:35:03.914Z,24.20
2022-09-04T13:37:45.337Z,24.00
2022-09-04T13:40:42.720Z,24.00
2022-09-04T13:43:46.007Z,24.20
2022-09-04T13:46:24.094Z,24.60
2022-09-04T13:49:03.542Z,24.80
2022-09-04T13:51:45.415Z,24.80
2022-09-04T13:54:30.571Z,24.80
2022-09-04T13:57:25.935Z,24.80
2022-09-04T13:59:55.539Z,24.80
2022-09-04T14:02:26.816Z,24.80
2022-09-04T14:05:20.550Z,24.80
2022-09-04T14:08:02.912Z,24.80
2022-09-04T14:10:43.201Z,24.80
2022-09-04T14:13:41.757Z,24.80
2022-09-04T14:16:14.615Z,24.70
2022-09-04T14:19:19.552Z,24.70
2022-09-04T14:22:10.738Z,24.70
2022-09-04T14:24:56.559Z,25.00
2022-09-04T14:27:50.390Z,25.20
2022-09-04T14:30:24.717Z,25.20
2022-09-04T14:33:30.104Z,25.30
2022-09-04T14:36:35.633Z,25.20
2022-09-04T14:39:22.904Z,25.00
2022-09-04T14:42:19.894Z,24.80
2022-09-04T14:45:33.404Z,24.60
2022-09-04T14:48:09.239Z,24.50
2022-09-04T14:50:54.375Z,24.30
2022-09-04T14:53:31.878Z,24.20
2022-09-04T14:56:46.512Z,24.00
2022-09-04T14:59:36.903Z,24.00
2022-09-04T15:02:10.502Z,24.00
2022-09-04T15:05:00.015Z,23.90
2022-09-04T15:07:42.157Z,23.90
2022-09-04T15:10:24.385Z,23.80
2022-09-04T15:13:28.138Z,23.80
2022-09-04T15:16:02.375Z,23.80
2022-09-04T15:19:16.345Z,23.70
2022-09-04T15:22:23.449Z,23.70
2022-09-04T15:25:09.102Z,23.70
2022-09-04T15:27:42.133Z,23.60
2022-09-04T15:30:25.019Z,23.60
2022-09-04T15:33:10.257Z,23.60
2022-09-04T15:35:40.724Z,23.50
2022-09-04T15:38:22.866Z,23.50
2022-09-04T15:41:16.198Z,23.50
2022-09-04T15:43:51.310Z,23.50
2022-09-04T15:46:37.300Z,23.50
2022-09-04T15:49:49.387Z,23.40
2022-09-04T15:52:48.735Z,23.30
2022-09-04T15:55:23.360Z,23.30
2022-09-04T15:58:37.891Z,23.20
2022-09-04T16:01:31.147Z,23.10
2022-09-04T16:04:17.584Z,23.10
2022-09-04T16:06:54.175Z,23.10
2022-09-04T16:09:54.206Z,23.00
2022-09-04T16:12:29.279Z,23.00
2022-09-04T16:15:05.280Z,22.90
2022-09-04T16:17:42.357Z,22.80
2022-09-04T16:20:51.421Z,22.90
2022-09-04T16:23:38.455Z,22.80
2022-09-04T16:26:26.516Z,22.70
2022-09-04T16:29:30.537Z,22.70
2022-09-04T16:31:58.986Z,22.60
2022-09-04T16:34:34.282Z,22.50
2022-09-04T16:37:14.641Z,22.50
2022-09-04T16:40:26.302Z,22.40
2022-09-04T16:43:18.164Z,22.40
2022-09-04T16:46:16.486Z,22.40
2022-09-04T16:49:08.926Z,22.30
2022-09-04T16:51:42.240Z,22.30
2022-09-04T16:54:47.355Z,22.30
2022-09-04T16:57:18.561Z,22.30
2022-09-04T17:00:00.661Z,22.30
2022-09-04T17:03:17.244Z,22.20
2022-09-04T17:06:02.970Z,22.20
2022-09-04T17:08:47.971Z,22.10
2022-09-04T17:11:26.328Z,22.10
2022-09-04T17:14:09.105Z,22.00
2022-09-04T17:17:03.040Z,22.00
2022-09-04T17:19:40.001Z,22.00
2022-09-04T17:29:03.606Z,21.90
2022-09-04T17:29:15.424Z,21.90
2022-09-04T17:29:16.027Z,21.90
2022-09-04T17:31:57.483Z,21.80
2022-09-04T17:40:50.559Z,21.80
2022-09-04T17:40:51.462Z,21.70
2022-09-04T17:41:39.607Z,21.70
2022-09-04T17:44:31.872Z,21.70
2022-09-04T17:47:16.122Z,21.60
2022-09-04T17:49:50.589Z,21.60
2022-09-04T17:52:50.637Z,21.60
2022-09-04T17:55:20.808Z,21.50
2022-09-04T17:58:08.350Z,21.60
2022-09-04T18:01:18.064Z,21.50
2022-09-04T18:04:26.728Z,21.50
2022-09-04T18:07:57.714Z,21.50
2022-09-04T18:10:52.098Z,21.40
2022-09-04T18:14:11.588Z,21.30
2022-09-04T18:17:21.202Z,21.30
2022-09-04T18:20:06.073Z,21.20
2022-09-04T18:22:45.806Z,21.20
2022-09-04T18:25:28.296Z,21.10
2022-09-04T18:28:12.375Z,21.10
2022-09-04T18:37:12.024Z,21.00
2022-09-04T18:37:22.083Z,21.00
2022-09-04T18:37:44.840Z,20.90
2022-09-04T18:44:06.700Z,20.90
2022-09-04T18:50:33.445Z,20.80
2022-09-04T18:50:40.371Z,20.80
2022-09-04T18:51:19.464Z,20.70
2022-09-04T18:54:00.121Z,20.60
2022-09-04T18:56:45.092Z,20.60
2022-09-04T18:59:27.097Z,20.60
2022-09-04T19:02:27.405Z,20.50
2022-09-04T19:05:09.013Z,20.50
2022-09-04T19:08:01.827Z,20.50
2022-09-04T19:10:36.679Z,20.40
2022-09-04T19:13:14.540Z,20.40
2022-09-04T19:16:29.901Z,20.30
2022-09-04T19:19:17.431Z,20.30
2022-09-04T19:21:58.543Z,20.20
2022-09-04T19:24:52.088Z,20.20
2022-09-04T19:27:32.098Z,20.20
2022-09-04T19:30:25.101Z,20.10
2022-09-04T19:33:31.886Z,20.00
2022-09-04T19:36:05.997Z,20.00
2022-09-04T19:46:03.257Z,19.80
2022-09-04T19:46:07.743Z,19.90
2022-09-04T19:46:16.657Z,19.80
2022-09-04T19:48:51.030Z,19.70
2022-09-04T19:53:24.471Z,19.70
2022-09-04T19:55:24.053Z,19.60
2022-09-04T19:58:11.302Z,19.60
2022-09-04T20:01:00.290Z,19.50
2022-09-04T20:03:46.370Z,19.50
2022-09-04T20:06:22.698Z,19.40
2022-09-04T20:09:01.288Z,19.40
2022-09-04T20:11:56.326Z,19.30
2022-09-04T20:14:59.512Z,19.30
2022-09-04T20:17:51.753Z,19.20
2022-09-04T20:20:26.932Z,19.20
2022-09-04T20:23:44.141Z,19.10
2022-09-04T20:26:22.278Z,19.10
2022-09-04T20:29:01.169Z,19.00
2022-09-04T20:32:04.149Z,19.00
2022-09-04T20:35:33.148Z,19.00
2022-09-04T20:38:22.993Z,18.90
2022-09-04T20:41:01.234Z,18.90
2022-09-04T20:44:13.356Z,18.80
2022-09-04T20:52:45.158Z,18.80
2022-09-04T20:52:52.790Z,18.70
2022-09-04T20:52:57.427Z,18.70
2022-09-04T20:56:38.206Z,18.60
2022-09-04T21:03:13.846Z,18.60
2022-09-04T21:03:19.143Z,18.60
2022-09-04T21:06:06.775Z,18.50
2022-09-04T21:09:06.464Z,18.50
2022-09-04T21:11:45.042Z,18.50
2022-09-04T21:14:44.471Z,18.40
2022-09-04T21:17:39.987Z,18.40
2022-09-04T21:20:15.487Z,18.30
2022-09-04T21:23:07.640Z,18.30
2022-09-04T21:26:24.021Z,18.20
2022-09-04T21:29:25.297Z,18.20
2022-09-04T21:32:23.247Z,18.20
2022-09-04T21:35:06.399Z,18.10
2022-09-04T21:37:54.196Z,18.10
2022-09-04T21:40:42.214Z,18.00
2022-09-04T21:43:35.986Z,18.00
2022-09-04T21:46:28.876Z,18.00
2022-09-04T21:49:26.339Z,17.90
2022-09-04T21:52:22.877Z,17.90
2022-09-04T21:58:52.418Z,17.90
2022-09-04T22:02:39.908Z,17.80
2022-09-04T22:02:42.949Z,17.80
2022-09-04T22:05:22.126Z,17.80
2022-09-04T22:13:35.347Z,17.70
2022-09-04T22:13:40.672Z,17.70
2022-09-04T22:14:36.211Z,17.70
2022-09-04T22:17:48.601Z,17.60
2022-09-04T22:20:20.798Z,17.60
2022-09-04T22:23:33.543Z,17.50
2022-09-04T22:26:28.785Z,17.50
2022-09-04T22:29:39.586Z,17.50
2022-09-04T22:32:38.278Z,17.50
2022-09-04T22:35:52.988Z,17.50
2022-09-04T22:38:28.700Z,17.40
2022-09-04T22:41:41.452Z,17.40
2022-09-04T22:44:36.050Z,17.30
2022-09-04T22:47:27.400Z,17.30
2022-09-04T22:50:48.951Z,17.20
2022-09-04T22:53:53.855Z,17.20
2022-09-04T22:57:02.206Z,17.20
2022-09-04T22:59:51.707Z,17.20
2022-09-04T23:03:09.187Z,17.20
2022-09-04T23:07:52.202Z,17.20
2022-09-04T23:13:50.524Z,17.10
2022-09-04T23:14:01.275Z,17.10
2022-09-04T23:16:38.961Z,17.10
2022-09-04T23:26:35.090Z,17.10
2022-09-04T23:26:43.055Z,17.00
2022-09-04T23:27:00.100Z,17.00
2022-09-04T23:29:40.967Z,17.00
2022-09-04T23:32:33.167Z,17.00
2022-09-04T23:35:57.035Z,16.90
2022-09-04T23:38:58.369Z,17.00
2022-09-04T23:42:11.450Z,16.90
2022-09-04T23:44:59.569Z,16.90
2022-09-04T23:47:49.463Z,16.90
2022-09-04T23:51:04.493Z,16.90
2022-09-04T23:54:24.731Z,16.90
2022-09-04T23:57:27.921Z,16.90
